Time;durP1;ratioP1;P1;durP2;ratioP2;P2;SDS_P1;SDS_P2;PMS_P1;PMS_P2;Temp;Humidity;BMP_temperature;BMP_pressure;BME280_temperature;BME280_humidity;BME280_pressure;Samples;Min_cycle;Max_cycle;Signal;HPM_P1;HPM_P2
2024/02/21 00:02:20;;;;;;;26.98;13.45;;;8.30;99.90;;;-148.53;100.00;63986.66;5017347;28;20478;-78
2024/02/21 00:04:46;;;;;;;30.17;13.73;;;8.30;99.90;;;-148.53;100.00;63986.66;5012527;28;20053;-79
2024/02/21 00:07:11;;;;;;;26.92;13.05;;;8.30;99.90;;;-148.53;100.00;63986.66;5028414;28;20049;-80
2024/02/21 00:09:37;;;;;;;25.88;12.40;;;8.40;99.90;;;-148.53;100.00;63986.66;5017161;28;20046;-80
2024/02/21 00:12:05;;;;;;;25.95;12.48;;;8.40;99.90;;;-148.53;100.00;63986.66;5022484;28;20041;-80
2024/02/21 00:14:30;;;;;;;26.05;12.80;;;8.40;99.90;;;-148.53;100.00;63986.66;5021231;28;20057;-80
2024/02/21 00:16:56;;;;;;;25.33;13.60;;;8.40;99.90;;;-148.53;100.00;63986.66;5041118;28;20073;-80
2024/02/21 00:19:22;;;;;;;24.77;12.77;;;8.40;99.90;;;-148.53;100.00;63986.66;5028655;28;20038;-80
2024/02/21 00:21:48;;;;;;;29.80;12.82;;;8.50;99.90;;;-148.53;100.00;63986.66;5013092;28;20489;-80
2024/02/21 00:24:13;;;;;;;31.17;13.40;;;8.50;99.90;;;-148.53;100.00;63986.66;5020798;28;20033;-80
2024/02/21 00:26:39;;;;;;;26.15;13.55;;;8.50;99.90;;;-148.53;100.00;63986.66;5018173;28;20555;-79
2024/02/21 00:29:05;;;;;;;26.08;13.18;;;8.40;99.90;;;-148.53;100.00;63986.66;5023966;28;20561;-80
2024/02/21 00:31:31;;;;;;;29.52;13.73;;;8.50;99.90;;;-148.53;100.00;63986.66;5016512;28;20053;-80
2024/02/21 00:33:57;;;;;;;31.90;13.18;;;8.50;99.90;;;-148.53;100.00;63986.66;5027772;28;20029;-80
2024/02/21 00:36:23;;;;;;;26.85;12.73;;;8.40;99.90;;;-148.53;100.00;63986.66;5030118;28;20074;-80
2024/02/21 00:38:49;;;;;;;29.83;13.20;;;8.40;99.90;;;-148.53;100.00;63986.66;5035909;28;20121;-80
2024/02/21 00:41:15;;;;;;;31.75;13.48;;;8.50;99.90;;;-148.53;100.00;63986.66;5012567;28;20135;-80
2024/02/21 00:43:41;;;;;;;25.58;12.63;;;8.50;99.90;;;-148.53;100.00;63986.66;5024484;28;20033;-79
2024/02/21 00:46:08;;;;;;;30.67;13.65;;;8.50;99.90;;;-148.53;100.00;63986.66;5013814;28;20120;-80
2024/02/21 00:48:34;;;;;;;25.98;12.55;;;8.50;99.90;;;-148.53;100.00;63986.66;5015574;28;20053;-79
2024/02/21 00:51:00;;;;;;;26.95;13.35;;;8.60;99.90;;;-148.53;100.00;63986.66;5018323;28;20393;-80
2024/02/21 00:53:25;;;;;;;28.73;13.48;;;8.60;99.90;;;-148.53;100.00;63986.66;5022695;28;20033;-81
2024/02/21 00:55:51;;;;;;;29.63;13.80;;;8.60;99.90;;;-148.53;100.00;63986.66;5021504;28;20045;-80
2024/02/21 00:58:17;;;;;;;27.98;13.25;;;8.60;99.90;;;-148.53;100.00;63986.66;5024800;28;20052;-80
2024/02/21 01:00:42;;;;;;;28.52;13.70;;;8.60;99.90;;;-148.53;100.00;63986.66;5018288;28;20041;-80
2024/02/21 01:03:08;;;;;;;25.55;14.02;;;8.60;99.90;;;-148.53;100.00;63986.66;5019989;28;20091;-81
2024/02/21 01:05:34;;;;;;;29.90;14.07;;;8.60;99.90;;;-148.53;100.00;63986.66;5014776;28;20046;-81
2024/02/21 01:07:59;;;;;;;30.02;14.05;;;8.60;99.90;;;-148.53;100.00;63986.66;5025482;28;20030;-80
2024/02/21 01:10:25;;;;;;;33.45;15.45;;;8.70;99.90;;;-148.53;100.00;63986.66;5021356;28;20037;-80
2024/02/21 01:12:51;;;;;;;26.30;14.25;;;8.70;99.90;;;-148.53;100.00;63986.66;5024103;28;20049;-80
2024/02/21 01:15:17;;;;;;;33.47;14.68;;;8.70;99.90;;;-148.53;100.00;63986.66;5016226;28;20041;-81
2024/02/21 01:17:42;;;;;;;28.95;14.15;;;8.70;99.90;;;-148.53;100.00;63986.66;5012542;28;20100;-81
2024/02/21 01:20:08;;;;;;;26.40;14.50;;;8.70;99.90;;;-148.53;100.00;63986.66;5012377;28;20085;-82
2024/02/21 01:22:35;;;;;;;30.98;14.50;;;8.70;99.90;;;-148.53;100.00;63986.66;5016234;28;20498;-81
2024/02/21 01:25:01;;;;;;;30.85;13.98;;;8.70;99.90;;;-148.53;100.00;63986.66;5015213;28;20053;-81
2024/02/21 01:27:27;;;;;;;26.02;13.77;;;8.70;99.90;;;-148.53;100.00;63986.66;5019662;28;20038;-80
2024/02/21 01:29:53;;;;;;;25.95;13.55;;;8.70;99.90;;;-148.53;100.00;63986.66;5016719;28;20397;-80
2024/02/21 01:32:19;;;;;;;24.88;14.20;;;8.80;99.90;;;-148.53;100.00;63986.66;5018646;28;20132;-80
2024/02/21 01:34:44;;;;;;;31.00;14.43;;;8.80;99.90;;;-148.53;100.00;63986.66;5010505;28;20133;-82
2024/02/21 01:37:10;;;;;;;21.90;12.57;;;8.80;99.90;;;-148.53;100.00;63986.66;5010329;28;20061;-81
2024/02/21 01:39:36;;;;;;;28.30;13.90;;;8.80;99.90;;;-148.53;100.00;63986.66;5010404;28;20462;-82
2024/02/21 01:42:02;;;;;;;26.42;13.20;;;8.80;99.90;;;-148.53;100.00;63986.66;5009413;28;20104;-81
2024/02/21 01:44:28;;;;;;;27.05;13.25;;;8.80;99.90;;;-148.53;100.00;63986.66;5026145;28;20441;-81
2024/02/21 01:46:54;;;;;;;30.98;14.27;;;8.80;99.90;;;-148.53;100.00;63986.66;5038180;28;20100;-80
2024/02/21 01:49:21;;;;;;;26.70;13.57;;;8.90;99.90;;;-148.53;100.00;63986.66;5037717;28;20037;-80
2024/02/21 01:51:47;;;;;;;26.10;13.85;;;8.90;99.90;;;-148.53;100.00;63986.66;5028629;28;20048;-80
2024/02/21 01:54:15;;;;;;;26.67;12.93;;;8.90;99.90;;;-148.53;100.00;63986.66;5027681;28;20037;-80
2024/02/21 01:56:43;;;;;;;31.73;13.63;;;8.90;99.90;;;-148.53;100.00;63986.66;5014833;28;20034;-80
2024/02/21 01:59:09;;;;;;;28.03;13.70;;;8.90;99.90;;;-148.53;100.00;63986.66;5022540;28;20044;-81
2024/02/21 02:01:35;;;;;;;27.88;12.82;;;8.90;99.90;;;-148.53;100.00;63986.66;5015631;28;20053;-81
2024/02/21 02:04:01;;;;;;;28.65;14.32;;;8.90;99.90;;;-148.53;100.00;63986.66;5030991;28;20041;-81
2024/02/21 02:06:27;;;;;;;25.55;12.63;;;8.90;99.90;;;-148.53;100.00;63986.66;5024280;28;20074;-80
2024/02/21 02:08:54;;;;;;;25.77;13.10;;;8.90;99.90;;;-148.53;100.00;63986.66;5016235;28;20041;-82
2024/02/21 02:11:20;;;;;;;24.52;13.07;;;9.00;99.90;;;-148.53;100.00;63986.66;5011684;28;20041;-80
2024/02/21 02:13:46;;;;;;;29.33;13.40;;;9.00;99.90;;;-148.53;100.00;63986.66;5032908;28;20029;-81
2024/02/21 02:16:11;;;;;;;23.50;13.05;;;9.00;99.90;;;-148.53;100.00;63986.66;5015694;28;20042;-79
2024/02/21 02:18:37;;;;;;;27.48;13.82;;;8.90;99.90;;;-148.53;100.00;63986.66;5024760;28;20041;-80
2024/02/21 02:21:13;;;;;;;29.70;13.00;;;9.00;99.90;;;-148.53;100.00;63986.66;5019999;28;20518;-80
2024/02/21 02:23:41;;;;;;;25.83;13.52;;;9.00;99.90;;;-148.53;100.00;63986.66;5016631;28;20037;-80
2024/02/21 02:26:07;;;;;;;28.67;13.32;;;9.00;99.90;;;-148.53;100.00;63986.66;5019479;28;20121;-80
2024/02/21 02:28:33;;;;;;;24.13;13.07;;;9.00;99.90;;;-148.53;100.00;63986.66;5023605;28;20046;-79
2024/02/21 02:30:58;;;;;;;29.40;13.55;;;9.00;99.90;;;-148.53;100.00;63986.66;5015362;28;20499;-79
2024/02/21 02:33:24;;;;;;;29.42;13.43;;;9.00;99.90;;;-148.53;100.00;63986.66;5023291;28;20056;-79
2024/02/21 02:35:50;;;;;;;26.92;13.43;;;9.00;99.90;;;-148.53;100.00;63986.66;5017188;28;20033;-80
2024/02/21 02:38:16;;;;;;;23.80;13.98;;;9.00;99.90;;;-148.53;100.00;63986.66;5015293;28;20034;-80
2024/02/21 02:40:43;;;;;;;26.42;14.25;;;9.00;99.90;;;-148.53;100.00;63986.66;5030587;28;20037;-79
2024/02/21 02:43:10;;;;;;;26.70;13.60;;;9.00;99.90;;;-148.53;100.00;63986.66;5024559;28;20084;-79
2024/02/21 02:45:36;;;;;;;24.92;13.38;;;9.00;99.90;;;-148.53;100.00;63986.66;5019293;28;20038;-80
2024/02/21 02:48:02;;;;;;;24.95;13.60;;;9.00;99.90;;;-148.53;100.00;63986.66;5030365;28;20038;-81
2024/02/21 02:50:28;;;;;;;27.23;13.73;;;9.00;99.90;;;-148.53;100.00;63986.66;5016700;28;20180;-80
2024/02/21 02:52:54;;;;;;;27.17;14.25;;;9.10;99.90;;;-148.53;100.00;63986.66;5014348;28;20096;-81
2024/02/21 02:55:20;;;;;;;25.75;13.23;;;9.10;99.90;;;-148.53;100.00;63986.66;5014815;28;20034;-80
2024/02/21 02:57:47;;;;;;;26.67;14.07;;;9.00;99.90;;;-148.53;100.00;63986.66;5021402;28;20037;-80
2024/02/21 03:00:14;;;;;;;30.33;14.30;;;9.00;99.90;;;-148.53;100.00;63986.66;5026645;28;20034;-80
2024/02/21 03:02:42;;;;;;;22.55;13.20;;;9.00;99.90;;;-148.53;100.00;63986.66;5018176;28;20044;-80
2024/02/21 03:05:20;;;;;;;24.08;13.32;;;9.10;99.90;;;-148.53;100.00;63986.66;5030276;28;20469;-80
2024/02/21 03:07:46;;;;;;;26.00;13.32;;;9.00;99.90;;;-148.53;100.00;63986.66;5030632;28;20053;-80
2024/02/21 03:10:14;;;;;;;23.20;13.55;;;9.00;99.90;;;-148.53;100.00;63986.66;5042628;28;20030;-80
2024/02/21 03:12:40;;;;;;;26.90;14.10;;;9.00;99.90;;;-148.53;100.00;63986.66;5017616;28;20049;-79
2024/02/21 03:15:06;;;;;;;26.73;13.90;;;9.00;99.90;;;-148.53;100.00;63986.66;5022438;28;20295;-79
2024/02/21 03:17:34;;;;;;;25.05;13.55;;;9.00;99.90;;;-148.53;100.00;63986.66;5018199;28;20108;-80
2024/02/21 03:20:09;;;;;;;25.20;13.40;;;9.00;99.90;;;-148.53;100.00;63986.66;5029747;28;20052;-80
2024/02/21 03:22:34;;;;;;;24.02;14.02;;;9.00;99.90;;;-148.53;100.00;63986.66;5023327;28;20159;-79
2024/02/21 03:25:00;;;;;;;26.83;13.40;;;8.90;99.90;;;-148.53;100.00;63986.66;5039313;28;20116;-80
2024/02/21 03:27:26;;;;;;;27.33;13.85;;;8.90;99.90;;;-148.53;100.00;63986.66;5024409;28;20037;-79
2024/02/21 03:29:52;;;;;;;27.60;13.93;;;8.90;99.90;;;-148.53;100.00;63986.66;5009622;28;20427;-79
2024/02/21 03:32:18;;;;;;;26.98;14.63;;;8.90;99.90;;;-148.53;100.00;63986.66;5024409;28;20038;-79
2024/02/21 03:34:43;;;;;;;29.10;14.40;;;8.90;99.90;;;-148.53;100.00;63986.66;5026536;28;20124;-80
2024/02/21 03:37:09;;;;;;;25.52;13.65;;;8.80;99.90;;;-148.53;100.00;63986.66;5014709;28;20049;-79
2024/02/21 03:39:35;;;;;;;28.20;14.35;;;8.80;99.90;;;-148.53;100.00;63986.66;5039115;28;20029;-79
2024/02/21 03:42:04;;;;;;;24.27;13.40;;;8.70;99.90;;;-148.53;100.00;63986.66;5018788;28;20409;-79
2024/02/21 03:44:31;;;;;;;28.88;13.95;;;8.70;99.90;;;-148.53;100.00;63986.66;5025179;28;20041;-77
2024/02/21 03:46:57;;;;;;;30.05;13.77;;;8.70;99.90;;;-148.53;100.00;63986.66;5030132;28;20033;-79
2024/02/21 03:49:23;;;;;;;26.17;14.80;;;8.80;99.90;;;-148.53;100.00;63986.66;5022691;28;20490;-80
2024/02/21 03:51:48;;;;;;;27.30;15.13;;;8.80;99.90;;;-148.53;100.00;63986.66;5017827;28;20045;-79
2024/02/21 03:54:14;;;;;;;23.77;13.20;;;8.80;99.90;;;-148.53;100.00;63986.66;5030712;28;20030;-79
2024/02/21 03:56:40;;;;;;;28.92;14.88;;;8.80;99.90;;;-148.53;100.00;63986.66;5027011;28;20509;-80
2024/02/21 03:59:07;;;;;;;30.55;14.25;;;8.80;99.90;;;-148.53;100.00;63986.66;5029355;28;20042;-79
2024/02/21 04:01:34;;;;;;;26.92;14.60;;;8.80;99.90;;;-148.53;100.00;63986.66;5019317;28;20049;-79
2024/02/21 04:04:00;;;;;;;27.75;14.15;;;8.80;99.90;;;-148.53;100.00;63986.66;5038703;28;20046;-79
2024/02/21 04:06:26;;;;;;;27.17;14.27;;;8.80;99.90;;;-148.53;100.00;63986.66;5016697;28;20048;-79
2024/02/21 04:08:51;;;;;;;26.83;13.95;;;8.80;99.90;;;-148.53;100.00;63986.66;5024410;28;20042;-79
2024/02/21 04:11:18;;;;;;;25.92;14.38;;;8.80;99.90;;;-148.53;100.00;63986.66;5023885;28;20038;-80
2024/02/21 04:13:49;;;;;;;26.38;13.95;;;8.80;99.90;;;-148.53;100.00;63986.66;5019921;28;20413;-80
2024/02/21 04:16:16;;;;;;;26.17;13.48;;;8.80;99.90;;;-148.53;100.00;63986.66;5022674;28;20037;-80
2024/02/21 04:18:42;;;;;;;22.52;13.90;;;8.80;99.90;;;-148.53;100.00;63986.66;5026590;28;20048;-80
2024/02/21 04:21:09;;;;;;;25.90;13.82;;;8.80;99.90;;;-148.53;100.00;63986.66;5019476;28;20045;-79
2024/02/21 04:23:35;;;;;;;29.05;14.43;;;8.80;99.90;;;-148.53;100.00;63986.66;5028347;28;20036;-79
2024/02/21 04:26:01;;;;;;;26.50;14.05;;;8.80;99.90;;;-148.53;100.00;63986.66;5020045;28;20042;-79
2024/02/21 04:28:26;;;;;;;27.90;14.02;;;8.90;99.90;;;-148.53;100.00;63986.66;5016643;28;20033;-80
2024/02/21 04:30:52;;;;;;;29.95;14.02;;;8.80;99.90;;;-148.53;100.00;63986.66;5018724;28;20506;-79
2024/02/21 04:33:18;;;;;;;27.90;13.88;;;8.90;99.90;;;-148.53;100.00;63986.66;5016580;28;20053;-79
2024/02/21 04:35:44;;;;;;;32.55;15.02;;;8.80;99.90;;;-148.53;100.00;63986.66;5015028;28;20116;-79
2024/02/21 04:38:11;;;;;;;32.03;13.90;;;8.80;99.90;;;-148.53;100.00;63986.66;5014943;28;20038;-79
2024/02/21 04:40:36;;;;;;;26.77;14.10;;;8.80;99.90;;;-148.53;100.00;63986.66;5036028;28;20090;-79
2024/02/21 04:43:03;;;;;;;33.45;14.55;;;8.80;99.90;;;-148.53;100.00;63986.66;5023600;28;20045;-80
2024/02/21 04:45:29;;;;;;;26.75;14.15;;;8.80;99.90;;;-148.53;100.00;63986.66;5039771;28;20424;-80
2024/02/21 04:47:54;;;;;;;25.95;14.20;;;8.80;99.90;;;-148.53;100.00;63986.66;5018666;28;20041;-80
2024/02/21 04:50:20;;;;;;;26.63;13.65;;;8.80;99.90;;;-148.53;100.00;63986.66;5020201;28;20034;-80
2024/02/21 04:52:46;;;;;;;27.30;14.63;;;8.80;99.90;;;-148.53;100.00;63986.66;5018501;28;20038;-80
2024/02/21 04:55:11;;;;;;;26.80;14.38;;;8.90;99.90;;;-148.53;100.00;63986.66;5030274;28;20044;-80
2024/02/21 04:57:37;;;;;;;28.60;14.35;;;8.90;99.90;;;-148.53;100.00;63986.66;5043579;28;20042;-80
2024/02/21 05:00:03;;;;;;;31.38;14.45;;;8.80;99.90;;;-148.53;100.00;63986.66;5010784;28;20037;-80
2024/02/21 05:02:30;;;;;;;27.15;14.07;;;8.90;99.90;;;-148.53;100.00;63986.66;5015962;28;20497;-80
2024/02/21 05:04:56;;;;;;;28.27;14.30;;;8.90;99.90;;;-148.53;100.00;63986.66;5013965;28;20042;-80
2024/02/21 05:07:23;;;;;;;26.88;14.63;;;8.90;99.90;;;-148.53;100.00;63986.66;5020388;28;20069;-80
2024/02/21 05:09:48;;;;;;;26.48;13.63;;;8.90;99.90;;;-148.53;100.00;63986.66;5021437;28;20046;-79
2024/02/21 05:12:14;;;;;;;32.05;14.88;;;9.00;99.90;;;-148.53;100.00;63986.66;5028803;28;20026;-80
2024/02/21 05:14:40;;;;;;;27.20;15.02;;;9.00;99.90;;;-148.53;100.00;63986.66;5029124;28;20473;-81
2024/02/21 05:17:06;;;;;;;29.95;15.00;;;8.90;99.90;;;-148.53;100.00;63986.66;5023681;28;20033;-80
2024/02/21 05:19:31;;;;;;;28.55;14.57;;;9.00;99.90;;;-148.53;100.00;63986.66;5020779;28;20038;-79
2024/02/21 05:21:58;;;;;;;29.38;15.43;;;9.00;99.90;;;-148.53;100.00;63986.66;5017613;28;20618;-80
2024/02/21 05:24:25;;;;;;;30.05;14.43;;;9.00;99.90;;;-148.53;100.00;63986.66;5013793;28;20033;-79
2024/02/21 05:26:51;;;;;;;26.83;15.15;;;9.00;99.90;;;-148.53;100.00;63986.66;5016298;28;20048;-78
2024/02/21 05:29:16;;;;;;;29.90;15.95;;;9.00;99.90;;;-148.53;100.00;63986.66;5020619;28;20029;-79
2024/02/21 05:31:51;;;;;;;30.40;15.15;;;8.90;99.90;;;-148.53;100.00;63986.66;5012386;28;20045;-79
2024/02/21 05:34:18;;;;;;;26.63;14.93;;;9.00;99.90;;;-148.53;100.00;63986.66;5024072;28;20065;-80
2024/02/21 05:36:44;;;;;;;27.75;14.60;;;9.00;99.90;;;-148.53;100.00;63986.66;5018337;28;20044;-79
2024/02/21 05:39:09;;;;;;;32.20;14.98;;;9.00;99.90;;;-148.53;100.00;63986.66;5021273;28;20044;-79
2024/02/21 05:41:35;;;;;;;24.55;14.35;;;9.00;99.90;;;-148.53;100.00;63986.66;5018787;28;20053;-79
2024/02/21 05:44:01;;;;;;;27.40;14.27;;;9.00;99.90;;;-148.53;100.00;63986.66;5023243;28;20037;-79
2024/02/21 05:46:27;;;;;;;29.92;15.15;;;8.90;99.90;;;-148.53;100.00;63986.66;5012349;28;20048;-79
2024/02/21 05:48:53;;;;;;;27.20;14.85;;;8.90;99.90;;;-148.53;100.00;63986.66;5014023;28;20100;-79
2024/02/21 05:51:18;;;;;;;29.02;13.48;;;8.90;99.90;;;-148.53;100.00;63986.66;5022076;28;20103;-82
2024/02/21 05:53:44;;;;;;;27.45;14.10;;;8.90;99.90;;;-148.53;100.00;63986.66;5035728;28;20064;-80
2024/02/21 05:56:14;;;;;;;24.67;14.25;;;8.90;99.90;;;-148.53;100.00;63986.66;5022097;28;20030;-80
2024/02/21 05:58:40;;;;;;;23.75;13.63;;;8.90;99.90;;;-148.53;100.00;63986.66;5024362;28;20045;-80
2024/02/21 06:01:09;;;;;;;23.88;13.15;;;8.90;99.90;;;-148.53;100.00;63986.66;5021451;28;20076;-79
2024/02/21 06:03:36;;;;;;;28.88;13.48;;;8.90;99.90;;;-148.53;100.00;63986.66;5034072;28;20099;-81
2024/02/21 06:06:03;;;;;;;22.88;13.48;;;8.90;99.90;;;-148.53;100.00;63986.66;5028295;28;20444;-81
2024/02/21 06:08:28;;;;;;;21.00;13.13;;;8.90;99.90;;;-148.53;100.00;63986.66;5033451;28;20040;-80
2024/02/21 06:10:54;;;;;;;23.92;13.00;;;8.90;99.90;;;-148.53;100.00;63986.66;5024293;28;20042;-81
2024/02/21 06:13:29;;;;;;;26.30;12.52;;;8.80;99.90;;;-148.53;100.00;63986.66;5028148;28;20038;-82
2024/02/21 06:15:54;;;;;;;28.65;13.85;;;8.80;99.90;;;-148.53;100.00;63986.66;5017035;28;20045;-80
2024/02/21 06:18:21;;;;;;;24.58;13.65;;;8.80;99.90;;;-148.53;100.00;63986.66;5021412;28;20029;-79
2024/02/21 06:20:47;;;;;;;23.60;13.30;;;8.70;99.90;;;-148.53;100.00;63986.66;5022877;28;20041;-78
2024/02/21 06:23:15;;;;;;;31.15;14.68;;;8.70;99.90;;;-148.53;100.00;63986.66;5023633;28;20033;-79
2024/02/21 06:25:40;;;;;;;;;;;8.70;99.90;;;-148.53;100.00;63986.66;5022008;28;20424;-79
2024/02/21 06:28:06;;;;;;;24.92;13.90;;;8.70;99.90;;;-148.53;100.00;63986.66;5023028;28;19917;-79
2024/02/21 06:30:32;;;;;;;26.65;14.15;;;8.70;99.90;;;-148.53;100.00;63986.66;5023644;28;20400;-80
2024/02/21 06:32:59;;;;;;;27.38;14.27;;;8.70;99.90;;;-148.53;100.00;63986.66;5033082;28;20045;-79
2024/02/21 06:35:25;;;;;;;26.15;13.77;;;8.70;99.90;;;-148.53;100.00;63986.66;5029320;28;20477;-79
2024/02/21 06:37:51;;;;;;;26.40;13.65;;;8.80;99.90;;;-148.53;100.00;63986.66;5023208;28;20030;-78
2024/02/21 06:40:22;;;;;;;24.60;13.00;;;8.80;99.90;;;-148.53;100.00;63986.66;5022473;28;20117;-77
2024/02/21 06:42:48;;;;;;;27.00;14.02;;;8.80;99.90;;;-148.53;100.00;63986.66;5024453;28;20037;-78
2024/02/21 06:45:15;;;;;;;22.92;12.77;;;8.80;99.90;;;-148.53;100.00;63986.66;5026585;28;20596;-77
2024/02/21 06:47:41;;;;;;;21.03;13.20;;;8.80;99.90;;;-148.53;100.00;63986.66;5020572;28;20478;-78
2024/02/21 06:50:08;;;;;;;23.00;13.52;;;8.80;99.90;;;-148.53;100.00;63986.66;5031743;28;20338;-78
2024/02/21 06:52:34;;;;;;;29.15;14.88;;;8.80;99.90;;;-148.53;100.00;63986.66;5031789;28;20059;-79
2024/02/21 06:55:00;;;;;;;23.98;13.27;;;8.80;99.90;;;-148.53;100.00;63986.66;5016114;28;20040;-76
2024/02/21 06:57:26;;;;;;;24.02;13.32;;;8.80;99.90;;;-148.53;100.00;63986.66;5020086;28;20029;-77
2024/02/21 06:59:51;;;;;;;25.00;13.32;;;8.80;99.90;;;-148.53;100.00;63986.66;5019896;28;20564;-77
2024/02/21 07:02:17;;;;;;;27.42;13.50;;;8.80;99.90;;;-148.53;100.00;63986.66;5014516;28;20033;-77
2024/02/21 07:04:43;;;;;;;22.73;13.82;;;8.80;99.90;;;-148.53;100.00;63986.66;5015575;28;20056;-78
2024/02/21 07:07:09;;;;;;;25.45;13.88;;;8.80;99.90;;;-148.53;100.00;63986.66;5022164;28;20063;-77
2024/02/21 07:09:35;;;;;;;23.75;14.05;;;8.80;99.90;;;-148.53;100.00;63986.66;5020034;28;20091;-78
2024/02/21 07:12:01;;;;;;;24.63;13.38;;;8.70;99.90;;;-148.53;100.00;63986.66;5025885;28;20037;-79
2024/02/21 07:14:28;;;;;;;25.73;14.77;;;8.70;99.90;;;-148.53;100.00;63986.66;5024507;28;20087;-79
2024/02/21 07:16:54;;;;;;;22.23;13.47;;;8.70;99.90;;;-148.53;100.00;63986.66;5019556;28;20112;-78
2024/02/21 07:19:20;;;;;;;23.25;13.15;;;8.80;99.90;;;-148.53;100.00;63986.66;5031320;28;20053;-78
2024/02/21 07:21:46;;;;;;;22.80;12.57;;;8.80;99.90;;;-148.53;100.00;63986.66;5043951;28;20508;-78
2024/02/21 07:24:12;;;;;;;26.85;12.82;;;8.80;99.90;;;-148.53;100.00;63986.66;5025039;28;20033;-77
2024/02/21 07:26:42;;;;;;;23.48;12.68;;;8.80;99.90;;;-148.53;100.00;63986.66;5020165;28;20038;-78
2024/02/21 07:29:08;;;;;;;20.48;11.23;;;8.90;99.90;;;-148.53;100.00;63986.66;5024918;28;20052;-79
2024/02/21 07:31:44;;;;;;;22.35;12.27;;;8.90;99.90;;;-148.53;100.00;63986.66;5027875;28;20077;-77
2024/02/21 07:34:10;;;;;;;22.92;11.55;;;8.90;99.90;;;-148.53;100.00;63986.66;5028790;28;20044;-77
2024/02/21 07:36:38;;;;;;;21.35;12.20;;;8.90;99.90;;;-148.53;100.00;63986.66;5024630;28;20149;-77
2024/02/21 07:39:06;;;;;;;23.40;12.02;;;8.90;99.90;;;-148.53;100.00;63986.66;5014931;28;20045;-78
2024/02/21 07:41:33;;;;;;;21.50;11.43;;;8.90;99.90;;;-148.53;100.00;63986.66;5029730;28;20034;-79
2024/02/21 07:43:59;;;;;;;19.70;11.27;;;9.00;99.90;;;-148.53;100.00;63986.66;5033405;28;20037;-77
2024/02/21 07:46:25;;;;;;;23.27;11.30;;;9.00;99.90;;;-148.53;100.00;63986.66;5024192;28;20041;-77
2024/02/21 07:48:51;;;;;;;19.42;10.80;;;9.10;99.90;;;-148.53;100.00;63986.66;5023379;28;20054;-78
2024/02/21 07:51:17;;;;;;;18.02;10.65;;;9.10;99.90;;;-148.53;100.00;63986.66;5030681;28;20033;-75
2024/02/21 07:53:44;;;;;;;18.80;10.93;;;9.20;99.90;;;-148.53;100.00;63986.66;5020099;28;20029;-78
2024/02/21 07:56:15;;;;;;;18.83;10.35;;;9.20;99.90;;;-148.53;100.00;63986.66;5034203;28;20128;-77
2024/02/21 07:58:44;;;;;;;20.10;11.05;;;9.20;99.90;;;-148.53;100.00;63986.66;5049892;28;20029;-76
2024/02/21 08:01:10;;;;;;;20.85;10.88;;;9.20;99.90;;;-148.53;100.00;63986.66;5036540;28;20040;-77
2024/02/21 08:03:36;;;;;;;16.67;9.70;;;9.20;99.90;;;-148.53;100.00;63986.66;5051154;28;20346;-77
2024/02/21 08:06:03;;;;;;;19.30;10.70;;;9.20;99.90;;;-148.53;100.00;63986.66;5053953;28;20040;-78
2024/02/21 08:08:29;;;;;;;23.83;11.30;;;9.20;99.90;;;-148.53;100.00;63986.66;5024350;28;20040;-77
2024/02/21 08:10:54;;;;;;;21.50;10.52;;;9.20;99.90;;;-148.53;100.00;63986.66;5013673;28;20417;-77
2024/02/21 08:13:20;;;;;;;20.20;10.80;;;9.20;99.90;;;-148.53;100.00;63986.66;5029057;28;20044;-77
2024/02/21 08:15:46;;;;;;;20.35;9.95;;;9.20;99.90;;;-148.53;100.00;63986.66;5015985;28;20481;-80
2024/02/21 08:18:12;;;;;;;22.08;11.02;;;9.30;99.90;;;-148.53;100.00;63986.66;5022283;28;20044;-78
2024/02/21 08:20:38;;;;;;;21.70;10.55;;;9.30;99.90;;;-148.53;100.00;63986.66;5019896;28;20944;-78
2024/02/21 08:23:03;;;;;;;21.15;10.95;;;9.30;99.90;;;-148.53;100.00;63986.66;5024011;28;20026;-78
2024/02/21 08:25:29;;;;;;;18.55;10.23;;;9.20;99.90;;;-148.53;100.00;63986.66;5013811;28;20493;-78
2024/02/21 08:27:59;;;;;;;20.38;11.40;;;9.20;99.90;;;-148.53;100.00;63986.66;5021393;28;20037;-78
2024/02/21 08:30:25;;;;;;;20.02;10.07;;;9.30;99.90;;;-148.53;100.00;63986.66;5028166;28;20025;-77
2024/02/21 08:32:52;;;;;;;21.73;10.43;;;9.30;99.90;;;-148.53;100.00;63986.66;5019878;28;20469;-78
2024/02/21 08:35:18;;;;;;;22.80;10.65;;;9.30;99.90;;;-148.53;100.00;63986.66;5035073;28;20034;-78
2024/02/21 08:37:47;;;;;;;17.20;9.82;;;9.40;99.90;;;-148.53;100.00;63986.66;5025873;28;20139;-78
2024/02/21 08:40:13;;;;;;;18.48;9.45;;;9.30;99.90;;;-148.53;100.00;63986.66;5017310;28;20493;-78
2024/02/21 08:42:41;;;;;;;17.42;9.57;;;9.40;99.90;;;-148.53;100.00;63986.66;5022710;28;20084;-78
2024/02/21 08:45:08;;;;;;;18.67;9.55;;;9.40;99.90;;;-148.53;100.00;63986.66;5013711;28;20117;-78
2024/02/21 08:47:35;;;;;;;16.55;9.30;;;9.50;99.90;;;-148.53;100.00;63986.66;5027114;28;20041;-79
2024/02/21 08:50:02;;;;;;;20.23;9.43;;;9.50;99.90;;;-148.53;100.00;63986.66;5035534;28;20033;-78
2024/02/21 08:52:28;;;;;;;20.80;9.68;;;9.50;99.90;;;-148.53;100.00;63986.66;5025792;28;20056;-78
2024/02/21 08:54:54;;;;;;;23.90;8.75;;;9.50;99.90;;;-148.53;100.00;63986.66;5017448;28;20069;-78
2024/02/21 08:57:20;;;;;;;19.55;9.02;;;9.60;99.90;;;-148.53;100.00;63986.66;5013368;28;20029;-77
2024/02/21 08:59:47;;;;;;;18.45;8.63;;;9.70;99.90;;;-148.53;100.00;63986.66;5033504;28;20096;-78
2024/02/21 09:02:13;;;;;;;19.20;8.52;;;9.70;99.90;;;-148.53;100.00;63986.66;5016582;28;20124;-78
2024/02/21 09:04:39;;;;;;;15.80;7.65;;;9.80;99.90;;;-148.53;100.00;63986.66;5015962;28;20061;-78
2024/02/21 09:07:05;;;;;;;19.98;8.73;;;9.80;99.90;;;-148.53;100.00;63986.66;5038757;28;20042;-78
2024/02/21 09:09:32;;;;;;;18.17;7.80;;;9.90;99.90;;;-148.53;100.00;63986.66;5023733;28;20026;-79
2024/02/21 09:12:05;;;;;;;14.30;7.80;;;9.90;99.90;;;-148.53;100.00;63986.66;5016021;28;20034;-78
2024/02/21 09:14:32;;;;;;;15.38;7.25;;;10.00;99.90;;;-148.53;100.00;63986.66;5013364;28;20488;-78
2024/02/21 09:16:58;;;;;;;16.95;7.53;;;10.00;99.90;;;-148.53;100.00;63986.66;5028081;28;20041;-78
2024/02/21 09:19:23;;;;;;;18.20;7.80;;;10.00;99.90;;;-148.53;100.00;63986.66;5019102;28;20042;-78
2024/02/21 09:21:49;;;;;;;14.65;6.70;;;10.00;99.90;;;-148.53;100.00;63986.66;5013451;28;20096;-77
2024/02/21 09:24:15;;;;;;;16.10;6.95;;;10.10;99.90;;;-148.53;100.00;63986.66;5021965;28;20397;-77
2024/02/21 09:26:41;;;;;;;16.88;6.97;;;10.10;99.90;;;-148.53;100.00;63986.66;5025081;28;20037;-78
2024/02/21 09:29:07;;;;;;;16.05;6.57;;;10.20;99.90;;;-148.53;100.00;63986.66;5022833;28;20127;-79
2024/02/21 09:31:33;;;;;;;11.30;6.00;;;10.40;99.90;;;-148.53;100.00;63986.66;5019692;28;20073;-78
2024/02/21 09:33:59;;;;;;;12.57;5.90;;;10.40;99.90;;;-148.53;100.00;63986.66;5013211;28;20070;-78
2024/02/21 09:36:24;;;;;;;13.90;6.22;;;10.40;99.90;;;-148.53;100.00;63986.66;5015384;28;20055;-78
2024/02/21 09:38:50;;;;;;;13.55;6.20;;;10.50;99.90;;;-148.53;100.00;63986.66;5028459;28;20056;-78
2024/02/21 09:41:27;;;;;;;13.95;6.18;;;10.70;99.90;;;-148.53;100.00;63986.66;5032943;28;20038;-78
2024/02/21 09:43:53;;;;;;;12.65;6.32;;;;;;;-148.53;100.00;63986.66;5007374;28;20045;-78
2024/02/21 09:46:38;;;;;;;13.45;6.38;;;;;;;-148.53;100.00;63986.66;5013114;28;20048;-79
2024/02/21 09:49:15;;;;;;;10.75;5.32;;;;;;;-148.53;100.00;63986.66;5018734;28;20034;-79
2024/02/21 09:51:44;;;;;;;13.52;5.60;;;10.80;99.90;;;-148.53;100.00;63986.66;5028433;28;20034;-79
2024/02/21 09:54:10;;;;;;;11.00;5.20;;;11.10;99.90;;;-148.53;100.00;63986.66;5012969;28;20061;-78